Grissom Air Reserve Base/Grissom Aeroplex

Airport
ICAO code: 
KGUS
Summary
ICAO Region: 
NAM
Territory: 
Location: 
Kokomo, Indiana,
Elevation: 
812 ft
Coordinates: 
Aerial View: 
40° 39' 33.79" N, 86° 8' 51.371" W
Airport WX: 
Cumulonimbus
Metar
Observation
KGUS 040556Z AUTO 03008KT 10SM CLR 01/M00 A3009 RMK AO2 SLP197 T00141001 10059 20014 52016 $
Station
Grissom Air Force Base / Peru
Date/Time
2021-12-04 05:56:00
Wind direction
30°
Wind speed
08 kts
Lowest cloud amount
n/a
Temperature
1.4°C
Dew point
-0.1°C
Humidity
89%
Weather condition
n/a

Description

Grissom Air Reserve Base, formerly Grissom Air Force Base, is a United States Air Force installation, located approximately 19 km north of Kokomo, Indiana. The facility is a joint use civil airport/military base shared with the Grissom Aeroplex which provides general aviation and charter service.

Climatology

Humid continental climate (Köppen climate classification Dfa) - characterized by four seasons: cold, windy, snowy winters, mild springs, hot, humid summers, and crisp and relatively short autumns. Precipitation reaches its lowest in January and February and peaks in summer and latter half of spring.

Runways

Designator Length Width Surface Rops
5/23 3810 61 ASP Yes/Yes
Airport map: 
Aerial View: 

SKYbrary Partners:

Safety knowledge contributed by: